Shaunavon, Canada
Current Conditions -  °F | °C
As of 8:11 AM on Wednesday 22 Oct 2014 (Local Time) from CYYN Reporting Station
Light Rain Light Rain  
Wind Chill: 40°   Ceiling: 1200
Heat Index: 46°   Visibility: 6mi
Dew Point: 45°   Wind: 15mph
Humidity: 93%   Direction: 290°WNW
Pressure: 29.76"   Gusts: 21mph
Location:  49.65°N, 108.42°W
Report Text: CYYN 221411Z AUTO 29013G18KT 6SM -RA BR SCT006 BKN012 BKN024 OVC049 08/07 A2976 RMK PCPN 0.5MM PAST HR SLP089
Loading
Personal Weather Stations






























Interactive Weather Map
Tropical Storm Tracking
New forecast layout! Learn more

10-Day Weather Forecast

Advertisements
Track Severe Weather on mobile